Time;durP1;ratioP1;P1;durP2;ratioP2;P2;SDS_P1;SDS_P2;PMS_P1;PMS_P2;Temp;Humidity;BMP_temperature;BMP_pressure;BME280_temperature;BME280_humidity;BME280_pressure;Samples;Min_cycle;Max_cycle;Signal;HPM_P1;HPM_P2
2021/05/09 00:01:55;;;;;;;2.43;1.47;;;;;;;12.20;nan;96105.97;4946571;28;20446;-74
2021/05/09 00:04:22;;;;;;;2.70;1.30;;;;;;;12.30;nan;96109.53;4945697;28;20926;-74
2021/05/09 00:06:49;;;;;;;2.37;1.20;;;;;;;12.41;nan;96093.91;4949008;28;20438;-73
2021/05/09 00:09:16;;;;;;;8.20;1.57;;;;;;;12.45;nan;96091.88;4946108;28;20806;-74
2021/05/09 00:11:43;;;;;;;1.80;1.30;;;;;;;12.53;nan;96087.75;4948139;28;20936;-74
2021/05/09 00:14:10;;;;;;;3.27;1.40;;;;;;;12.43;nan;96068.50;4954263;28;20851;-73
2021/05/09 00:16:38;;;;;;;7.33;1.90;;;;;;;12.40;nan;96075.75;4949316;28;20922;-74
2021/05/09 00:19:05;;;;;;;3.00;1.43;;;;;;;12.32;nan;96072.91;4960042;28;20458;-75
2021/05/09 00:21:32;;;;;;;3.40;1.40;;;;;;;12.29;nan;96079.19;4948940;28;21124;-74
2021/05/09 00:24:00;;;;;;;2.00;1.33;;;;;;;12.29;nan;96073.97;4959433;28;20487;-74
2021/05/09 00:26:28;;;;;;;2.87;1.40;;;;;;;12.29;nan;96068.75;4942605;28;20940;-75
2021/05/09 00:28:55;;;;;;;2.70;1.47;;;;;;;12.23;nan;96073.63;4943283;28;20973;-73
2021/05/09 00:31:22;;;;;;;2.20;1.70;;;;;;;12.18;nan;96075.72;4962631;28;20477;-74
2021/05/09 00:33:48;;;;;;;2.90;1.00;;;;;;;12.15;nan;96068.97;4946368;28;20454;-74
2021/05/09 00:36:15;;;;;;;1.80;1.03;;;;;;;12.10;nan;96072.88;4956375;28;20511;-73
2021/05/09 00:38:42;;;;;;;2.07;1.20;;;;;;;12.02;nan;96062.19;4946025;28;20446;-74
2021/05/09 00:41:09;;;;;;;4.10;1.57;;;;;;;12.00;nan;96062.31;4946580;28;20434;-75
2021/05/09 00:43:37;;;;;;;3.37;1.20;;;;;;;12.01;nan;96058.75;4947350;28;20498;-74
2021/05/09 00:46:04;;;;;;;2.13;1.00;;;;;;;12.01;nan;96058.75;4939353;28;20888;-74
2021/05/09 00:48:31;;;;;;;2.90;1.40;;;;;;;11.84;nan;96050.56;4947415;28;20816;-74
2021/05/09 00:50:59;;;;;;;2.33;1.60;;;;;;;11.86;nan;96053.88;4947295;28;20465;-74
2021/05/09 00:53:28;;;;;;;4.40;1.80;;;;;;;11.78;nan;96040.59;4948791;28;20813;-74
2021/05/09 00:55:57;;;;;;;2.73;1.30;;;;;;;11.75;nan;96046.88;4956029;28;20470;-74
2021/05/09 00:58:24;;;;;;;2.50;1.57;;;;;;;11.75;nan;96041.66;4940034;28;20550;-74
2021/05/09 01:00:53;;;;;;;3.90;1.30;;;;;;;11.72;nan;96046.28;4956131;28;20452;-74
2021/05/09 01:03:26;;;;;;;3.03;1.43;;;;;;;11.60;nan;96044.56;4945440;28;20515;-74
2021/05/09 01:05:54;;;;;;;4.10;1.33;;;;;;;11.55;nan;96039.66;4951909;28;20512;-73
2021/05/09 01:08:22;;;;;;;4.00;1.33;;;;;;;11.51;nan;96040.88;4954448;28;21045;-74
2021/05/09 01:10:49;;;;;;;3.70;1.13;;;;;;;11.48;nan;96038.47;4946772;28;20461;-73
2021/05/09 01:13:16;;;;;;;2.30;1.60;;;;;;;11.43;nan;96042.38;4954558;28;20445;-75
2021/05/09 01:15:43;;;;;;;2.23;1.30;;;;;;;11.39;nan;96033.09;4939068;28;20494;-74
2021/05/09 01:18:11;;;;;;;1.70;1.30;;;;;;;11.44;nan;96036.19;4949465;28;20431;-74
2021/05/09 01:20:39;;;;;;;7.23;1.40;;;;;;;11.31;nan;96031.06;4946992;28;20493;-73
2021/05/09 01:23:06;;;;;;;2.50;1.43;;;;;;;11.37;nan;96032.38;4951237;28;20460;-73
2021/05/09 01:25:34;;;;;;;1.57;1.07;;;;;;;11.45;nan;96033.50;4951176;28;21160;-74
2021/05/09 01:28:00;;;;;;;5.43;1.23;;;;;;;11.47;nan;96030.75;4948971;28;20436;-75
2021/05/09 01:30:27;;;;;;;1.97;1.03;;;;;;;11.59;nan;96032.47;4956399;28;20469;-74
2021/05/09 01:32:54;;;;;;;1.47;1.00;;;;;;;11.58;nan;96015.19;4954794;28;20802;-73
2021/05/09 01:35:21;;;;;;;3.17;1.10;;;;;;;11.66;nan;96021.50;4957285;28;21003;-73
2021/05/09 01:37:49;;;;;;;2.13;1.30;;;;;;;11.75;nan;96031.22;4953636;28;20438;-73
2021/05/09 01:40:16;;;;;;;2.27;1.20;;;;;;;11.74;nan;96031.34;4959484;28;20467;-74
2021/05/09 01:42:43;;;;;;;3.60;1.13;;;;;;;11.78;nan;96024.94;4945939;28;20794;-74
2021/05/09 01:45:11;;;;;;;2.83;1.30;;;;;;;11.89;nan;96020.59;4952291;28;21002;-73
2021/05/09 01:47:38;;;;;;;1.73;1.00;;;;;;;11.87;nan;96013.81;4956898;28;20509;-74
2021/05/09 01:50:09;;;;;;;3.43;1.43;;;;;;;11.97;nan;96022.59;4957027;28;20488;-75
2021/05/09 01:52:37;;;;;;;7.40;1.30;;;;;;;11.98;nan;96017.25;4956676;28;20830;-75
2021/05/09 01:55:07;;;;;;;4.33;1.40;;;;;;;12.17;nan;96009.69;4956123;28;20941;-74
2021/05/09 01:57:34;;;;;;;3.77;1.57;;;;;;;12.33;nan;96015.38;4951435;28;20464;-74
2021/05/09 02:00:10;;;;;;;1.70;0.90;;;;;;;12.45;nan;96006.56;4949901;28;20842;-73
2021/05/09 02:02:37;;;;;;;2.33;1.83;;;;;;;12.45;nan;96011.78;4956609;28;20511;-75
2021/05/09 02:05:06;;;;;;;1.33;1.13;;;;;;;12.44;nan;96010.13;4945206;28;20474;-74
2021/05/09 02:07:32;;;;;;;2.40;1.17;;;;;;;12.42;nan;96009.44;4960155;28;20489;-74
2021/05/09 02:10:00;;;;;;;1.10;1.00;;;;;;;12.40;nan;96024.38;4951963;28;20556;-74
2021/05/09 02:12:27;;;;;;;1.50;1.00;;;;;;;12.54;nan;96015.47;4949669;28;20508;-75
2021/05/09 02:14:55;;;;;;;2.80;1.50;;;;;;;12.51;nan;96016.53;4945646;28;20892;-73
2021/05/09 02:17:22;;;;;;;8.43;1.00;;;;;;;12.53;nan;96013.81;4953731;28;20526;-75
2021/05/09 02:19:49;;;;;;;2.17;1.00;;;;;;;12.54;nan;96011.09;4952111;28;20716;-74
2021/05/09 02:22:17;;;;;;;2.30;1.10;;;;;;;12.67;nan;96016.97;4945877;28;20819;-74
2021/05/09 02:24:44;;;;;;;3.13;1.23;;;;;;;12.71;nan;96013.19;4943891;28;20459;-73
2021/05/09 02:27:11;;;;;;;1.30;0.87;;;;;;;12.75;nan;96009.38;4954191;28;20857;-75
2021/05/09 02:29:39;;;;;;;2.30;1.07;;;;;;;12.85;nan;96013.72;4949417;28;20984;-75
2021/05/09 02:32:06;;;;;;;2.63;1.10;;;;;;;12.88;nan;96015.25;4948522;28;20512;-73
2021/05/09 02:34:34;;;;;;;2.63;1.27;;;;;;;12.83;nan;96004.38;4944821;28;20843;-75
2021/05/09 02:37:02;;;;;;;2.33;1.00;;;;;;;12.93;nan;96018.34;4939862;28;20458;-75
2021/05/09 02:39:29;;;;;;;8.00;1.30;;;;;;;12.95;nan;96011.25;4954408;28;20470;-73
2021/05/09 02:41:56;;;;;;;1.83;1.40;;;;;;;13.03;nan;96008.84;4955203;28;20988;-74
2021/05/09 02:44:23;;;;;;;2.37;1.23;;;;;;;13.16;nan;96014.72;4948004;28;20993;-73
2021/05/09 02:46:51;;;;;;;1.70;1.20;;;;;;;13.26;nan;96016.47;4943019;28;20816;-73
2021/05/09 02:49:18;;;;;;;6.43;1.30;;;;;;;13.40;nan;96012.72;4942790;28;20465;-75
2021/05/09 02:51:45;;;;;;;1.23;0.90;;;;;;;13.32;nan;96017.75;4940925;28;20757;-74
2021/05/09 02:54:11;;;;;;;4.00;1.10;;;;;;;13.31;nan;96018.72;4947385;28;20969;-73
2021/05/09 02:56:38;;;;;;;3.47;1.47;;;;;;;13.35;nan;96007.88;4950535;28;20462;-74
2021/05/09 02:59:08;;;;;;;2.23;1.20;;;;;;;13.42;nan;96011.63;4952620;28;20528;-74
2021/05/09 03:01:35;;;;;;;1.83;1.03;;;;;;;13.47;nan;96014.72;4951677;28;20803;-73
2021/05/09 03:04:03;;;;;;;2.30;1.10;;;;;;;13.53;nan;96006.38;4949945;28;20520;-74
2021/05/09 03:06:30;;;;;;;4.13;1.07;;;;;;;13.60;nan;96006.69;4957374;28;20500;-74
2021/05/09 03:08:58;;;;;;;4.27;1.47;;;;;;;13.65;nan;96005.31;4955438;28;21143;-76
2021/05/09 03:11:28;;;;;;;2.40;1.20;;;;;;;13.67;nan;96010.44;4943858;28;20901;-74
2021/05/09 03:13:55;;;;;;;2.70;1.03;;;;;;;13.67;nan;96005.22;4947521;28;20794;-75
2021/05/09 03:16:23;;;;;;;2.60;1.10;;;;;;;13.77;nan;96003.47;4940912;28;21066;-73
2021/05/09 03:18:50;;;;;;;2.23;1.20;;;;;;;13.78;nan;96002.53;4956157;28;20892;-75
2021/05/09 03:21:20;;;;;;;1.30;1.20;;;;;;;13.82;nan;95998.69;4950341;28;20441;-75
2021/05/09 03:23:48;;;;;;;8.33;1.17;;;;;;;13.76;nan;95999.19;4937790;28;20921;-76
2021/05/09 03:26:14;;;;;;;2.47;1.30;;;;;;;13.71;nan;96006.63;4939582;28;20926;-75
2021/05/09 03:28:41;;;;;;;2.13;1.33;;;;;;;13.64;nan;96000.25;4949776;28;20454;-74
2021/05/09 03:31:08;;;;;;;1.37;0.90;;;;;;;13.76;nan;95994.81;4962651;28;20442;-73
2021/05/09 03:33:35;;;;;;;2.30;1.37;;;;;;;13.81;nan;95997.88;4947307;28;20450;-75
2021/05/09 03:36:02;;;;;;;4.03;1.20;;;;;;;13.74;nan;95995.91;4945048;28;20489;-75
2021/05/09 03:38:30;;;;;;;3.43;1.13;;;;;;;13.73;nan;95989.81;4944435;28;20442;-74
2021/05/09 03:40:57;;;;;;;2.30;1.10;;;;;;;13.83;nan;95984.66;4951526;28;20441;-75
2021/05/09 03:43:24;;;;;;;1.97;1.17;;;;;;;13.79;nan;95989.31;4959837;28;21003;-75
2021/05/09 03:45:51;;;;;;;2.20;1.00;;;;;;;13.79;nan;95988.50;4943864;28;20774;-74
2021/05/09 03:48:17;;;;;;;2.07;1.10;;;;;;;13.82;nan;95983.00;4949025;28;20475;-72
2021/05/09 03:50:44;;;;;;;2.17;1.10;;;;;;;13.82;nan;95986.47;4945645;28;20905;-75
2021/05/09 03:53:11;;;;;;;2.50;1.17;;;;;;;13.83;nan;95984.66;4942768;28;20465;-74
2021/05/09 03:55:39;;;;;;;1.17;0.90;;;;;;;13.76;nan;95978.28;4949674;28;20895;-74
2021/05/09 03:58:06;;;;;;;2.70;1.07;;;;;;;13.70;nan;95984.06;4952033;28;20450;-74
2021/05/09 04:00:33;;;;;;;3.27;1.10;;;;;;;13.66;nan;95977.41;4955271;28;20525;-75
2021/05/09 04:03:00;;;;;;;2.17;1.10;;;;;;;13.70;nan;95979.63;4950618;28;20515;-74
2021/05/09 04:05:27;;;;;;;1.30;1.00;;;;;;;13.67;nan;95968.59;4951736;28;20467;-75
2021/05/09 04:07:54;;;;;;;6.27;1.40;;;;;;;13.69;nan;95977.13;4947661;28;20474;-74
2021/05/09 04:10:21;;;;;;;2.10;1.37;;;;;;;13.52;nan;95962.03;4953908;28;20466;-73
2021/05/09 04:12:51;;;;;;;2.13;0.97;;;;;;;13.67;nan;95979.06;4948730;28;20768;-74
2021/05/09 04:15:18;;;;;;;3.03;1.23;;;;;;;13.63;nan;95970.63;4952339;28;20466;-73
2021/05/09 04:17:45;;;;;;;5.63;1.30;;;;;;;13.60;nan;95964.84;4954697;28;20465;-74
2021/05/09 04:20:13;;;;;;;3.07;0.90;;;;;;;13.68;nan;95971.09;4949411;28;20506;-74
2021/05/09 04:22:40;;;;;;;2.80;1.10;;;;;;;13.69;nan;95972.75;4948484;28;20476;-73
2021/05/09 04:25:07;;;;;;;3.20;1.00;;;;;;;13.74;nan;95975.81;4939669;28;20516;-73
2021/05/09 04:27:34;;;;;;;1.10;0.80;;;;;;;13.81;nan;95973.50;4940258;28;20450;-74
2021/05/09 04:30:02;;;;;;;1.53;0.80;;;;;;;13.78;nan;95963.31;4948755;28;20467;-73
2021/05/09 04:32:28;;;;;;;1.37;1.23;;;;;;;13.83;nan;95967.19;4943134;28;20446;-74
2021/05/09 04:34:56;;;;;;;2.50;1.47;;;;;;;13.78;nan;95968.53;4945579;28;20817;-74
2021/05/09 04:37:23;;;;;;;4.00;0.77;;;;;;;13.80;nan;95964.00;4961326;28;20469;-73
2021/05/09 04:39:51;;;;;;;2.53;1.17;;;;;;;13.86;nan;95969.53;4947054;28;20462;-74
2021/05/09 04:42:18;;;;;;;1.50;1.00;;;;;;;13.90;nan;95975.31;4942173;28;20430;-74
2021/05/09 04:44:44;;;;;;;1.67;0.70;;;;;;;13.89;nan;95971.06;4926571;28;20504;-74
2021/05/09 04:47:12;;;;;;;3.10;1.40;;;;;;;13.86;nan;95968.72;4941930;28;20930;-72
2021/05/09 04:49:40;;;;;;;1.37;0.90;;;;;;;13.98;nan;95965.88;4944618;28;20870;-73
2021/05/09 04:52:07;;;;;;;2.03;1.10;;;;;;;14.05;nan;95963.56;4942576;28;20757;-74
2021/05/09 04:54:34;;;;;;;2.63;1.00;;;;;;;13.97;nan;95955.53;4942414;28;20467;-74
2021/05/09 04:57:01;;;;;;;2.63;1.17;;;;;;;14.04;nan;95961.91;4948529;28;20462;-75
2021/05/09 04:59:28;;;;;;;3.70;0.90;;;;;;;14.13;nan;95955.88;4937876;28;21209;-74
2021/05/09 05:01:54;;;;;;;1.43;0.90;;;;;;;14.18;nan;95964.19;4942149;28;20839;-74
2021/05/09 05:04:22;;;;;;;2.57;1.20;;;;;;;14.18;nan;95958.97;4946227;28;20491;-73
2021/05/09 05:06:49;;;;;;;2.03;1.00;;;;;;;14.18;nan;95964.19;4941333;28;20443;-74
2021/05/09 05:09:16;;;;;;;1.73;1.10;;;;;;;14.14;nan;95963.59;4939036;28;20997;-74
2021/05/09 05:11:43;;;;;;;1.60;1.00;;;;;;;14.17;nan;95959.88;4943384;28;20494;-74
2021/05/09 05:14:10;;;;;;;4.17;1.00;;;;;;;14.26;nan;95957.34;4944324;28;20478;-74
2021/05/09 05:16:37;;;;;;;1.53;0.80;;;;;;;14.32;nan;95964.69;4952274;28;20822;-75
2021/05/09 05:19:04;;;;;;;2.23;0.90;;;;;;;14.40;nan;95956.97;4958598;28;20524;-74
2021/05/09 05:21:31;;;;;;;3.00;1.27;;;;;;;14.51;nan;95961.28;4954675;28;20449;-73
2021/05/09 05:23:58;;;;;;;2.13;0.90;;;;;;;14.60;nan;95970.94;4945467;28;20519;-74
2021/05/09 05:26:25;;;;;;;1.90;1.10;;;;;;;14.69;nan;95964.88;4955784;28;20470;-74
2021/05/09 05:28:56;;;;;;;2.60;0.93;;;;;;;14.76;nan;95960.75;4957520;28;20952;-73
2021/05/09 05:31:23;;;;;;;2.80;1.27;;;;;;;14.85;nan;95960.78;4946219;28;20445;-74
2021/05/09 05:33:50;;;;;;;2.47;1.03;;;;;;;14.97;nan;95964.09;4951839;28;20770;-73
2021/05/09 05:36:17;;;;;;;3.77;1.00;;;;;;;15.06;nan;95968.53;4956788;28;20793;-73
2021/05/09 05:38:45;;;;;;;2.30;1.00;;;;;;;15.07;nan;95960.53;4945917;28;20879;-73
2021/05/09 05:41:12;;;;;;;1.67;1.00;;;;;;;15.11;nan;95961.88;4947035;28;20805;-74
2021/05/09 05:43:39;;;;;;;7.03;1.10;;;;;;;15.23;nan;95959.97;4948834;28;20444;-74
2021/05/09 05:46:06;;;;;;;1.40;0.90;;;;;;;15.29;nan;95964.66;4958163;28;20965;-71
2021/05/09 05:48:33;;;;;;;2.50;1.17;;;;;;;15.42;nan;95960.00;4961038;28;20450;-73
2021/05/09 05:51:00;;;;;;;1.20;0.80;;;;;;;15.52;nan;95956.38;4941670;28;20457;-74
2021/05/09 05:53:29;;;;;;;9.20;1.00;;;;;;;15.64;nan;95954.44;4956308;28;20804;-73
2021/05/09 05:55:57;;;;;;;1.60;0.93;;;;;;;15.76;nan;95962.00;4949161;28;20456;-73
2021/05/09 05:58:24;;;;;;;5.30;1.07;;;;;;;15.94;nan;95962.09;4952219;28;20481;-73
2021/05/09 06:00:51;;;;;;;1.73;1.03;;;;;;;16.07;nan;95962.59;4949364;28;20927;-74
2021/05/09 06:03:18;;;;;;;1.93;0.97;;;;;;;16.14;nan;95954.00;4948653;28;20763;-73
2021/05/09 06:05:46;;;;;;;2.70;1.40;;;;;;;16.26;nan;95954.66;4944324;28;20484;-73
2021/05/09 06:08:13;;;;;;;3.60;1.13;;;;;;;16.42;nan;95960.16;4946603;28;20508;-73
2021/05/09 06:10:40;;;;;;;1.50;0.90;;;;;;;16.58;nan;95960.34;4949254;28;20526;-74
2021/05/09 06:13:08;;;;;;;1.60;1.20;;;;;;;16.70;nan;95961.78;4951385;28;20457;-74
2021/05/09 06:15:35;;;;;;;1.97;1.00;;;;;;;16.72;nan;95950.13;4950192;28;21067;-73
2021/05/09 06:18:05;;;;;;;1.80;0.90;;;;;;;17.00;nan;95956.19;4945402;28;20780;-73
2021/05/09 06:20:32;;;;;;;1.23;0.80;;;;;;;17.12;nan;95963.72;4945550;28;20588;-74
2021/05/09 06:23:02;;;;;;;2.50;1.07;;;;;;;17.33;nan;95951.06;4935424;28;20947;-73
2021/05/09 06:25:29;;;;;;;2.13;1.00;;;;;;;17.50;nan;95950.25;4939451;28;20482;-73
2021/05/09 06:27:56;;;;;;;3.97;1.10;;;;;;;17.60;nan;95954.44;4942997;28;20900;-74
2021/05/09 06:30:25;;;;;;;2.40;1.00;;;;;;;17.74;nan;95942.53;4947577;28;21058;-72
2021/05/09 06:32:52;;;;;;;1.60;0.90;;;;;;;17.87;nan;95942.94;4959108;28;20469;-73
2021/05/09 06:35:19;;;;;;;2.20;1.00;;;;;;;17.99;nan;95945.16;4942546;28;20467;-73
2021/05/09 06:37:46;;;;;;;3.27;0.90;;;;;;;17.99;nan;95945.16;4947883;28;21011;-73
2021/05/09 06:40:13;;;;;;;38.00;2.30;;;;;;;18.15;nan;95934.72;4950963;28;20826;-72
2021/05/09 06:42:40;;;;;;;1.20;0.80;;;;;;;18.30;nan;95937.63;4949794;28;20824;-73
2021/05/09 06:45:11;;;;;;;1.70;1.00;;;;;;;18.40;nan;95933.03;4946194;28;20549;-73
2021/05/09 06:47:40;;;;;;;1.60;0.80;;;;;;;18.60;nan;95934.44;4945799;28;20930;-73
2021/05/09 06:50:08;;;;;;;1.67;1.07;;;;;;;18.59;nan;95936.28;4948724;28;21000;-74
2021/05/09 06:52:35;;;;;;;1.83;0.80;;;;;;;18.65;nan;95932.97;4940550;28;20500;-74
2021/05/09 06:55:03;;;;;;;1.80;0.90;;;;;;;18.77;nan;95929.06;4945577;28;21041;-71
2021/05/09 06:57:30;;;;;;;0.90;0.70;;;;;;;18.96;nan;95930.59;4945344;28;20532;-75
2021/05/09 06:59:57;;;;;;;4.50;1.00;;;;;;;19.03;nan;95926.31;4948455;28;20967;-74
2021/05/09 07:02:26;;;;;;;1.10;0.70;;;;;;;19.25;nan;95939.75;4935736;28;20446;-72
2021/05/09 07:04:54;;;;;;;6.40;0.87;;;;;;;19.41;nan;95925.72;4948501;28;20871;-72
2021/05/09 07:07:21;;;;;;;1.83;1.03;;;;;;;19.45;nan;95921.78;4950444;28;21107;-72
2021/05/09 07:09:48;;;;;;;1.50;0.80;;;;;;;19.62;nan;95928.69;4950665;28;20528;-74
2021/05/09 07:12:15;;;;;;;4.97;0.90;;;;;;;19.73;nan;95931.81;4948196;28;20890;-74
2021/05/09 07:14:43;;;;;;;2.37;0.80;;;;;;;19.79;nan;95935.59;4947701;28;21029;-72
2021/05/09 07:17:11;;;;;;;6.70;3.03;;;;;;;19.86;nan;95932.13;4950278;28;20466;-74
2021/05/09 07:19:39;;;;;;;3.13;1.60;;;;;;;20.13;nan;95929.13;4953147;28;20472;-73
2021/05/09 07:22:12;;;;;;;1.00;0.80;;;;;;;20.29;nan;95930.88;4943772;28;20765;-74
2021/05/09 07:24:39;;;;;;;7.70;1.13;;;;;;;20.40;nan;95933.19;4947776;28;20466;-72
2021/05/09 07:27:06;;;;;;;1.73;0.90;;;;;;;20.54;nan;95925.34;4941492;28;20517;-74
2021/05/09 07:29:33;;;;;;;5.57;1.73;;;;;;;20.69;nan;95936.84;4951267;28;20469;-75
2021/05/09 07:32:00;;;;;;;1.10;0.70;;;;;;;20.87;nan;95934.81;4963178;28;20577;-74
2021/05/09 07:34:27;;;;;;;1.03;0.80;;;;;;;21.15;nan;95930.69;4948021;28;20470;-75
2021/05/09 07:36:54;;;;;;;1.87;1.07;;;;;;;21.24;nan;95926.13;4948459;28;20474;-75
2021/05/09 07:39:22;;;;;;;2.00;0.87;;;;;;;21.33;nan;95925.91;4953749;28;20475;-74
2021/05/09 07:41:49;;;;;;;1.23;0.80;;;;;;;21.43;nan;95913.25;4955393;28;20497;-76
2021/05/09 07:44:16;;;;;;;1.40;1.10;;;;;;;21.79;nan;95916.13;4958013;28;20830;-75
2021/05/09 07:46:46;;;;;;;1.00;0.80;;;;;;;21.83;nan;95915.59;4937297;28;20505;-74
2021/05/09 07:49:13;;;;;;;1.60;0.90;;;;;;;21.83;nan;95904.16;4956049;28;20812;-74
2021/05/09 07:51:39;;;;;;;1.37;0.80;;;;;;;21.97;nan;95903.34;4959067;28;20454;-74
2021/05/09 07:54:06;;;;;;;2.10;0.97;;;;;;;21.97;nan;95895.38;4951310;28;20950;-74
2021/05/09 07:56:37;;;;;;;2.50;0.70;;;;;;;21.93;nan;95900.22;4952685;28;20690;-71
2021/05/09 07:59:04;;;;;;;1.43;0.80;;;;;;;22.15;nan;95896.69;4938750;28;20532;-72
2021/05/09 08:01:31;;;;;;;4.50;1.23;;;;;;;22.27;nan;95889.94;4917287;28;20517;-73
2021/05/09 08:03:58;;;;;;;2.47;1.00;;;;;;;22.31;nan;95899.16;4950910;28;20470;-73
2021/05/09 08:06:26;;;;;;;1.40;1.00;;;;;;;22.44;nan;95899.34;4958481;28;20438;-75
2021/05/09 08:08:53;;;;;;;1.30;0.90;;;;;;;22.66;nan;95888.63;4951208;28;20814;-75
2021/05/09 08:11:19;;;;;;;3.63;0.80;;;;;;;22.67;nan;95887.63;4957021;28;20509;-74
2021/05/09 08:13:47;;;;;;;7.13;1.40;;;;;;;22.74;nan;95887.69;4938961;28;20450;-73
2021/05/09 08:16:14;;;;;;;1.57;1.00;;;;;;;23.02;nan;95891.28;4943467;28;20504;-75
2021/05/09 08:18:41;;;;;;;5.67;2.20;;;;;;;23.06;nan;95889.91;4940934;28;20921;-72
2021/05/09 08:21:08;;;;;;;1.20;0.90;;;;;;;22.93;nan;95887.09;4956297;28;21413;-72
2021/05/09 08:23:38;;;;;;;3.00;1.30;;;;;;;23.20;nan;95889.06;4956792;28;20450;-72
2021/05/09 08:26:05;;;;;;;3.37;1.00;;;;;;;23.33;nan;95879.38;4939458;28;20454;-72
2021/05/09 08:28:32;;;;;;;4.60;0.97;;;;;;;23.40;nan;95877.59;4947012;28;21180;-73
2021/05/09 08:30:59;;;;;;;2.70;0.90;;;;;;;23.31;nan;95870.78;4946410;28;20956;-73
2021/05/09 08:33:26;;;;;;;1.97;0.80;;;;;;;23.28;nan;95880.97;4952055;28;20484;-72
2021/05/09 08:35:53;;;;;;;3.70;1.10;;;;;;;23.34;nan;95874.88;4941204;28;20818;-73
2021/05/09 08:38:26;;;;;;;1.73;0.90;;;;;;;23.44;nan;95878.03;4947140;28;20532;-73
2021/05/09 08:40:53;;;;;;;5.70;1.13;;;;;;;23.62;nan;95875.72;4952364;28;20541;-71
2021/05/09 08:43:20;;;;;;;1.37;0.80;;;;;;;23.73;nan;95868.06;4948964;28;20482;-72
2021/05/09 08:45:47;;;;;;;2.80;0.90;;;;;;;24.01;nan;95878.75;4942934;28;20476;-73
2021/05/09 08:48:18;;;;;;;3.40;1.40;;;;;;;24.12;nan;95875.53;4947556;28;21297;-72
2021/05/09 08:50:52;;;;;;;1.13;0.87;;;;;;;24.24;nan;95868.66;4948196;28;21018;-73
2021/05/09 08:53:19;;;;;;;1.43;0.80;;;;;;;24.25;nan;95875.59;4952065;28;20529;-72
2021/05/09 08:55:48;;;;;;;1.30;0.80;;;;;;;24.41;nan;95864.63;4953390;28;20473;-72
2021/05/09 08:58:15;;;;;;;3.70;0.90;;;;;;;24.40;nan;95858.50;4950545;28;20489;-72
2021/05/09 09:00:42;;;;;;;1.70;0.80;;;;;;;24.50;nan;95863.44;4947521;28;20970;-73
2021/05/09 09:03:12;;;;;;;1.93;1.27;;;;;;;24.70;nan;95849.25;4944590;28;20446;-72
2021/05/09 09:05:41;;;;;;;3.47;1.00;;;;;;;24.86;nan;95842.72;4949327;28;20470;-72
2021/05/09 09:08:09;;;;;;;1.67;1.10;;;;;;;24.95;nan;95849.50;4943327;28;20934;-73
2021/05/09 09:10:41;;;;;;;1.80;1.10;;;;;;;24.69;nan;95849.44;4941912;28;20502;-73
2021/05/09 09:13:23;;;;;;;2.43;0.97;;;;;;;24.80;nan;95838.19;4947061;28;20825;-72
2021/05/09 09:15:55;;;;;;;2.97;1.47;;;;;;;25.14;nan;95830.91;4948019;28;20446;-72
2021/05/09 09:18:27;;;;;;;4.13;1.27;;;;;;;25.42;nan;95828.09;4948393;28;20464;-73
2021/05/09 09:20:56;;;;;;;2.20;1.00;;;;;;;25.54;nan;95826.47;4946527;28;20802;-73
2021/05/09 09:23:23;;;;;;;1.23;1.00;;;;;;;25.51;nan;95818.84;4945198;28;20925;-73
2021/05/09 09:25:50;;;;;;;2.13;1.00;;;;;;;25.62;nan;95815.59;4940285;28;20952;-73
2021/05/09 09:28:18;;;;;;;4.37;1.80;;;;;;;25.53;nan;95820.28;4948581;28;20805;-73
2021/05/09 09:30:49;;;;;;;3.47;1.20;;;;;;;25.58;nan;95806.34;4949607;28;20561;-73
2021/05/09 09:33:17;;;;;;;1.37;0.97;;;;;;;25.87;nan;95812.06;4952577;28;20500;-73
2021/05/09 09:35:46;;;;;;;1.20;1.00;;;;;;;25.70;nan;95794.84;4941003;28;20556;-73
2021/05/09 09:38:30;;;;;;;1.10;0.83;;;;;;;25.85;nan;95803.44;4947792;28;20454;-74
2021/05/09 09:41:11;;;;;;;2.03;0.90;;;;;;;26.12;nan;95794.38;4950687;28;20964;-72
2021/05/09 09:43:39;;;;;;;1.70;0.90;;;;;;;26.27;nan;95799.47;4943651;28;20783;-73
2021/05/09 09:46:31;;;;;;;3.57;0.83;;;;;;;26.12;nan;95785.53;4949786;28;20818;-73
2021/05/09 09:48:58;;;;;;;3.53;1.00;;;;;;;26.28;nan;95785.09;4949651;28;20985;-73
2021/05/09 09:51:26;;;;;;;1.97;1.13;;;;;;;26.46;nan;95793.22;4950650;28;20449;-74
2021/05/09 09:53:56;;;;;;;2.33;1.10;;;;;;;26.61;nan;95789.28;4948441;28;20501;-73
2021/05/09 09:56:24;;;;;;;1.00;0.80;;;;;;;26.81;nan;95783.84;4945109;28;20472;-72
2021/05/09 09:58:54;;;;;;;1.57;1.00;;;;;;;26.61;nan;95778.63;4948448;28;20850;-73
2021/05/09 10:01:24;;;;;;;2.40;0.87;;;;;;;26.41;nan;95774.34;4947714;28;20434;-73
2021/05/09 10:03:53;;;;;;;1.83;1.07;;;;;;;26.41;nan;95766.34;4954012;28;20858;-72
2021/05/09 10:06:21;;;;;;;4.10;1.27;;;;;;;26.42;nan;95768.00;4948623;28;20821;-73
2021/05/09 10:08:49;;;;;;;5.30;2.80;;;;;;;26.42;nan;95765.34;4945115;28;21012;-73
2021/05/09 10:11:18;;;;;;;8.90;2.10;;;;;;;26.44;nan;95756.06;4961116;28;20773;-73
2021/05/09 10:13:47;;;;;;;3.37;1.03;;;;;;;26.44;nan;95763.25;4960476;28;20454;-74
2021/05/09 10:16:15;;;;;;;3.63;1.00;;;;;;;26.35;nan;95754.66;4950281;28;20771;-74
2021/05/09 10:18:46;;;;;;;1.53;0.80;;;;;;;26.66;nan;95751.25;4952795;28;21025;-72
2021/05/09 10:21:14;;;;;;;1.60;0.90;;;;;;;26.96;nan;95749.63;4949830;28;20464;-72
2021/05/09 10:24:07;;;;;;;3.23;1.13;;;;;;;26.87;nan;95745.59;4946836;28;20813;-72
2021/05/09 10:26:47;;;;;;;1.47;1.10;;;;;;;26.89;nan;95748.84;4945628;28;20500;-72
2021/05/09 10:30:00;;;;;;;2.00;1.03;;;;;;;27.11;nan;95747.47;4953218;28;20853;-71
2021/05/09 10:32:52;;;;;;;3.50;1.00;;;;;;;27.09;nan;95736.19;4953656;28;20449;-72
2021/05/09 10:35:54;;;;;;;3.57;0.90;;;;;;;27.15;nan;95744.16;4949477;28;20942;-72
2021/05/09 10:38:21;;;;;;;1.23;1.00;;;;;;;27.54;nan;95737.66;4951036;28;20577;-73
2021/05/09 10:40:49;;;;;;;4.50;0.80;;;;;;;27.51;nan;95744.28;4951984;28;20450;-72
2021/05/09 10:43:39;;;;;;;1.73;0.90;;;;;;;27.26;nan;95739.97;4953508;28;20465;-72
2021/05/09 10:46:07;;;;;;;1.20;1.00;;;;;;;27.35;nan;95728.78;4946132;28;20458;-73
2021/05/09 10:48:34;;;;;;;2.90;1.10;;;;;;;27.50;nan;95720.41;4947376;28;20441;-73
2021/05/09 10:51:26;;;;;;;3.83;1.03;;;;;;;27.67;nan;95727.66;4941615;28;20921;-72
2021/05/09 10:53:55;;;;;;;1.73;1.20;;;;;;;28.15;nan;95726.72;4947755;28;20556;-73
2021/05/09 10:56:32;;;;;;;8.67;1.07;;;;;;;28.25;nan;95729.72;4947527;28;20863;-73
2021/05/09 10:59:01;;;;;;;7.37;3.93;;;;;;;28.27;nan;95724.09;4951164;28;20851;-72
2021/05/09 11:01:33;;;;;;;8.80;5.60;;;;;;;27.77;nan;95727.19;4952767;28;20465;-73
2021/05/09 11:04:02;;;;;;;2.33;1.63;;;;;;;27.91;nan;95721.44;4952596;28;20466;-71
2021/05/09 11:06:47;;;;;;;3.90;0.90;;;;;;;27.75;nan;95713.97;4944351;28;20989;-73
2021/05/09 11:09:16;;;;;;;2.33;0.80;;;;;;;27.97;nan;95723.25;4941992;28;20957;-72
2021/05/09 11:12:03;;;;;;;6.40;0.77;;;;;;;28.25;nan;95720.84;4947351;28;20957;-72
2021/05/09 11:14:36;;;;;;;1.53;1.10;;;;;;;28.20;nan;95726.06;4947748;28;20470;-72
2021/05/09 11:17:06;;;;;;;1.83;1.10;;;;;;;28.39;nan;95706.28;4950549;28;20911;-71
2021/05/09 11:19:36;;;;;;;1.40;0.90;;;;;;;28.73;nan;95711.75;4948717;28;20821;-72
2021/05/09 11:22:08;;;;;;;1.07;0.87;;;;;;;29.02;nan;95708.25;4945677;28;20451;-72
2021/05/09 11:24:36;;;;;;;1.20;0.90;;;;;;;29.12;nan;95700.50;4945781;28;20564;-72
2021/05/09 11:27:12;;;;;;;3.17;0.83;;;;;;;28.78;nan;95698.50;4948169;28;20446;-72
2021/05/09 11:29:47;;;;;;;1.77;0.97;;;;;;;28.75;nan;95711.53;4943832;28;20860;-71
2021/05/09 11:32:16;;;;;;;3.47;1.80;;;;;;;28.44;nan;95691.16;4943917;28;20508;-72
2021/05/09 11:34:50;;;;;;;3.93;1.90;;;;;;;28.64;nan;95694.38;4943846;28;20774;-73
2021/05/09 11:37:18;;;;;;;2.27;1.47;;;;;;;28.87;nan;95691.75;4946407;28;20461;-71
2021/05/09 11:39:46;;;;;;;20.63;8.90;;;;;;;29.02;nan;95681.44;4938161;28;20474;-72
2021/05/09 11:42:15;;;;;;;16.10;7.20;;;;;;;29.25;nan;95683.34;4947934;28;20698;-72
2021/05/09 11:44:45;;;;;;;8.60;5.90;;;;;;;29.46;nan;95677.41;4948938;28;20521;-71
2021/05/09 11:47:13;;;;;;;3.23;1.67;;;;;;;29.80;nan;95666.69;4952957;28;20888;-72
2021/05/09 11:49:42;;;;;;;1.77;0.93;;;;;;;29.60;nan;95663.53;4943427;28;20502;-73
2021/05/09 11:52:17;;;;;;;1.73;1.13;;;;;;;29.68;nan;95663.19;4946271;28;20843;-72
2021/05/09 11:54:45;;;;;;;4.77;1.00;;;;;;;29.75;nan;95669.25;4941620;28;20868;-72
2021/05/09 11:57:13;;;;;;;2.20;1.00;;;;;;;29.68;nan;95660.50;4949085;28;20529;-72
2021/05/09 11:59:41;;;;;;;4.20;0.90;;;;;;;29.50;nan;95667.84;4942637;28;20504;-72